DLH29Y LFPG-EDDM
Flight info
| Callsign | DLH29Y |
|---|---|
| Flight time | 1h 0m |
| Altitude | 33000 |
| Route | LANVI DCT LUPEN T107 ROKIL ROKIL1A |
| Aircraft | A321/M-SDE2E3FGIJ1LORWXYZ/HB1 |
Departure
| Time | 2026-05-08 12:24 |
|---|---|
| Airport | Charles de Gaulle International Airport (LFPG) |
Arrival
| Time | 2026-05-08 13:24 |
|---|---|
| Airport | Munich Airport (EDDM) |
| Time | Latitude | Longitude | Altitude | Speed | Heading |
|---|---|---|---|---|---|
| 2026-05-08 11:57 | 49.01615 | 2.54046 | 355 ft | 0 kts | 314° |
| 2026-05-08 12:17 | 49.01616 | 2.54044 | 354 ft | 1 kts | 314° |
| 2026-05-08 12:17 | 49.01641 | 2.54017 | 360 ft | 7 kts | 329° |
| 2026-05-08 12:17 | 49.01692 | 2.53979 | 360 ft | 9 kts | 335° |
| 2026-05-08 12:18 | 49.01713 | 2.53963 | 354 ft | 0 kts | 333° |
| 2026-05-08 12:18 | 49.01718 | 2.53959 | 361 ft | 2 kts | 330° |
| 2026-05-08 12:19 | 49.01738 | 2.53934 | 364 ft | 5 kts | 322° |
| 2026-05-08 12:19 | 49.01779 | 2.53908 | 363 ft | 6 kts | 332° |
| 2026-05-08 12:19 | 49.01793 | 2.53825 | 358 ft | 11 kts | 267° |
| 2026-05-08 12:19 | 49.01787 | 2.53705 | 363 ft | 12 kts | 265° |
| 2026-05-08 12:20 | 49.01780 | 2.53572 | 354 ft | 13 kts | 265° |
| 2026-05-08 12:20 | 49.01772 | 2.53431 | 358 ft | 13 kts | 264° |
| 2026-05-08 12:20 | 49.01763 | 2.53281 | 355 ft | 15 kts | 265° |
| 2026-05-08 12:20 | 49.01755 | 2.53144 | 363 ft | 12 kts | 266° |
| 2026-05-08 12:21 | 49.01749 | 2.53012 | 356 ft | 13 kts | 266° |
| 2026-05-08 12:21 | 49.01743 | 2.52867 | 362 ft | 14 kts | 266° |
| 2026-05-08 12:21 | 49.01733 | 2.52708 | 356 ft | 16 kts | 265° |
| 2026-05-08 12:21 | 49.01723 | 2.52535 | 356 ft | 17 kts | 265° |
| 2026-05-08 12:22 | 49.01712 | 2.52350 | 356 ft | 18 kts | 264° |
| 2026-05-08 12:22 | 49.01709 | 2.52185 | 358 ft | 16 kts | 291° |
| 2026-05-08 12:22 | 49.01808 | 2.52132 | 354 ft | 17 kts | 354° |
| 2026-05-08 12:22 | 49.01910 | 2.52120 | 354 ft | 15 kts | 355° |
| 2026-05-08 12:23 | 49.02018 | 2.52108 | 354 ft | 16 kts | 356° |
| 2026-05-08 12:23 | 49.02106 | 2.52157 | 355 ft | 15 kts | 63° |
| 2026-05-08 12:23 | 49.02125 | 2.52466 | 356 ft | 61 kts | 86° |
| 2026-05-08 12:23 | 49.02180 | 2.53491 | 359 ft | 131 kts | 85° |
| 2026-05-08 12:24 | 49.02264 | 2.55075 | 680 ft | 155 kts | 86° |
| 2026-05-08 12:24 | 49.02344 | 2.56718 | 1450 ft | 156 kts | 85° |
| 2026-05-08 12:24 | 49.02450 | 2.58362 | 2237 ft | 155 kts | 84° |
| 2026-05-08 12:24 | 49.02546 | 2.59999 | 2882 ft | 155 kts | 85° |
| 2026-05-08 12:25 | 49.02628 | 2.61644 | 3545 ft | 156 kts | 85° |
| 2026-05-08 12:25 | 49.02716 | 2.63360 | 3968 ft | 172 kts | 85° |
| 2026-05-08 12:25 | 49.02818 | 2.65294 | 4269 ft | 194 kts | 85° |
| 2026-05-08 12:25 | 49.02933 | 2.67464 | 4487 ft | 218 kts | 85° |
| 2026-05-08 12:26 | 49.03054 | 2.69891 | 4629 ft | 240 kts | 85° |
| 2026-05-08 12:26 | 49.03190 | 2.72488 | 4737 ft | 255 kts | 86° |
| 2026-05-08 12:26 | 49.03326 | 2.75245 | 4883 ft | 264 kts | 86° |
| 2026-05-08 12:26 | 49.03462 | 2.78054 | 4989 ft | 266 kts | 86° |
| 2026-05-08 12:27 | 49.03597 | 2.80875 | 5007 ft | 266 kts | 86° |
| 2026-05-08 12:27 | 49.03728 | 2.83689 | 4997 ft | 267 kts | 86° |
| 2026-05-08 12:27 | 49.03858 | 2.86501 | 4996 ft | 266 kts | 86° |
| 2026-05-08 12:27 | 49.03989 | 2.89316 | 5024 ft | 267 kts | 86° |
| 2026-05-08 12:28 | 49.04124 | 2.92156 | 5720 ft | 268 kts | 86° |
| 2026-05-08 12:28 | 49.04084 | 2.95005 | 6506 ft | 272 kts | 102° |
| 2026-05-08 12:28 | 49.03627 | 2.97821 | 7239 ft | 275 kts | 105° |
| 2026-05-08 12:28 | 49.03140 | 3.00668 | 7965 ft | 280 kts | 105° |
| 2026-05-08 12:29 | 49.02640 | 3.03557 | 8674 ft | 285 kts | 105° |
| 2026-05-08 12:29 | 49.02134 | 3.06491 | 9399 ft | 289 kts | 105° |
| 2026-05-08 12:29 | 49.01622 | 3.09473 | 10107 ft | 293 kts | 106° |
| 2026-05-08 12:29 | 49.01092 | 3.12566 | 10396 ft | 312 kts | 106° |
| 2026-05-08 12:30 | 49.00477 | 3.15856 | 10570 ft | 332 kts | 110° |
| 2026-05-08 12:30 | 48.99713 | 3.19168 | 11063 ft | 339 kts | 111° |
| 2026-05-08 12:30 | 48.98876 | 3.22553 | 11694 ft | 343 kts | 112° |
| 2026-05-08 12:30 | 48.97997 | 3.25994 | 12356 ft | 347 kts | 113° |
| 2026-05-08 12:31 | 48.97127 | 3.29386 | 12981 ft | 350 kts | 113° |
| 2026-05-08 12:31 | 48.96242 | 3.32851 | 13617 ft | 353 kts | 113° |
| 2026-05-08 12:31 | 48.95354 | 3.36359 | 14214 ft | 357 kts | 112° |
| 2026-05-08 12:31 | 48.94464 | 3.39904 | 14782 ft | 360 kts | 112° |
| 2026-05-08 12:32 | 48.93568 | 3.43473 | 15332 ft | 364 kts | 112° |
| 2026-05-08 12:32 | 48.92664 | 3.47085 | 15910 ft | 367 kts | 112° |
| 2026-05-08 12:32 | 48.91749 | 3.50736 | 16478 ft | 370 kts | 112° |
| 2026-05-08 12:32 | 48.90829 | 3.54404 | 17031 ft | 374 kts | 113° |
| 2026-05-08 12:33 | 48.89897 | 3.58115 | 17571 ft | 377 kts | 113° |
| 2026-05-08 12:33 | 48.88954 | 3.61857 | 18110 ft | 381 kts | 113° |
| 2026-05-08 12:33 | 48.87998 | 3.65633 | 18598 ft | 384 kts | 113° |
| 2026-05-08 12:33 | 48.87033 | 3.69427 | 19078 ft | 387 kts | 113° |
| 2026-05-08 12:34 | 48.86058 | 3.73260 | 19567 ft | 390 kts | 113° |
| 2026-05-08 12:34 | 48.85079 | 3.77115 | 20051 ft | 393 kts | 113° |
| 2026-05-08 12:34 | 48.84092 | 3.80995 | 20527 ft | 396 kts | 113° |
| 2026-05-08 12:34 | 48.83094 | 3.84904 | 20991 ft | 398 kts | 113° |
| 2026-05-08 12:35 | 48.82089 | 3.88838 | 21444 ft | 401 kts | 113° |
| 2026-05-08 12:35 | 48.81068 | 3.92821 | 21731 ft | 408 kts | 113° |
| 2026-05-08 12:35 | 48.80032 | 3.96862 | 22126 ft | 413 kts | 113° |
| 2026-05-08 12:35 | 48.78987 | 4.00930 | 22565 ft | 416 kts | 113° |
| 2026-05-08 12:36 | 48.77930 | 4.05024 | 22998 ft | 418 kts | 113° |
| 2026-05-08 12:36 | 48.76862 | 4.09149 | 23429 ft | 421 kts | 113° |
| 2026-05-08 12:36 | 48.75802 | 4.13246 | 23819 ft | 424 kts | 113° |
| 2026-05-08 12:36 | 48.74725 | 4.17415 | 24176 ft | 427 kts | 113° |
| 2026-05-08 12:37 | 48.73642 | 4.21613 | 24528 ft | 429 kts | 113° |
| 2026-05-08 12:37 | 48.72550 | 4.25831 | 24875 ft | 432 kts | 113° |
| 2026-05-08 12:37 | 48.71444 | 4.30078 | 25217 ft | 435 kts | 113° |
| 2026-05-08 12:37 | 48.70327 | 4.34347 | 25531 ft | 438 kts | 113° |
| 2026-05-08 12:38 | 48.69202 | 4.38640 | 25883 ft | 439 kts | 114° |
| 2026-05-08 12:38 | 48.68076 | 4.42948 | 26246 ft | 441 kts | 114° |
| 2026-05-08 12:38 | 48.66944 | 4.47278 | 26601 ft | 444 kts | 114° |
| 2026-05-08 12:38 | 48.65800 | 4.51634 | 26940 ft | 446 kts | 114° |
| 2026-05-08 12:39 | 48.64646 | 4.56010 | 27264 ft | 449 kts | 114° |
| 2026-05-08 12:39 | 48.63487 | 4.60403 | 27598 ft | 451 kts | 114° |
| 2026-05-08 12:39 | 48.62319 | 4.64830 | 27917 ft | 454 kts | 114° |
| 2026-05-08 12:39 | 48.61144 | 4.69267 | 28240 ft | 456 kts | 114° |
| 2026-05-08 12:40 | 48.60015 | 4.73762 | 28561 ft | 460 kts | 107° |
| 2026-05-08 12:40 | 48.59497 | 4.78539 | 28852 ft | 464 kts | 95° |
| 2026-05-08 12:40 | 48.59297 | 4.83412 | 29208 ft | 465 kts | 95° |
| 2026-05-08 12:40 | 48.59106 | 4.88302 | 29531 ft | 467 kts | 94° |
| 2026-05-08 12:41 | 48.58915 | 4.93210 | 29824 ft | 469 kts | 94° |
| 2026-05-08 12:41 | 48.58718 | 4.98148 | 30104 ft | 471 kts | 95° |
| 2026-05-08 12:41 | 48.58518 | 5.03094 | 30331 ft | 473 kts | 95° |
| 2026-05-08 12:41 | 48.58316 | 5.08061 | 30542 ft | 475 kts | 95° |
| 2026-05-08 12:42 | 48.58110 | 5.13050 | 30791 ft | 476 kts | 95° |
| 2026-05-08 12:42 | 48.57900 | 5.18038 | 31087 ft | 475 kts | 95° |
| 2026-05-08 12:42 | 48.57689 | 5.22952 | 31367 ft | 475 kts | 95° |
| 2026-05-08 12:42 | 48.57468 | 5.27979 | 31689 ft | 473 kts | 95° |
| 2026-05-08 12:43 | 48.57250 | 5.32872 | 31974 ft | 473 kts | 95° |
| 2026-05-08 12:43 | 48.57031 | 5.37828 | 32272 ft | 473 kts | 95° |
| 2026-05-08 12:43 | 48.56813 | 5.42780 | 32552 ft | 473 kts | 95° |
| 2026-05-08 12:43 | 48.56593 | 5.47730 | 32817 ft | 473 kts | 95° |
| 2026-05-08 12:44 | 48.56368 | 5.52689 | 33025 ft | 474 kts | 95° |
| 2026-05-08 12:44 | 48.56145 | 5.57604 | 33070 ft | 466 kts | 95° |
| 2026-05-08 12:44 | 48.55701 | 5.67303 | 33058 ft | 461 kts | 95° |
| 2026-05-08 12:45 | 48.55247 | 5.76945 | 33058 ft | 460 kts | 95° |
| 2026-05-08 12:45 | 48.54774 | 5.86564 | 33057 ft | 459 kts | 95° |
| 2026-05-08 12:46 | 48.54352 | 5.94563 | 33057 ft | 460 kts | 96° |
| 2026-05-08 12:46 | 48.53830 | 6.04176 | 33060 ft | 460 kts | 96° |
| 2026-05-08 12:47 | 48.53222 | 6.15351 | 33067 ft | 459 kts | 96° |
| 2026-05-08 12:47 | 48.52785 | 6.23390 | 33072 ft | 460 kts | 96° |
| 2026-05-08 12:48 | 48.52254 | 6.33004 | 33081 ft | 459 kts | 96° |
| 2026-05-08 12:48 | 48.51714 | 6.42548 | 33072 ft | 459 kts | 96° |
| 2026-05-08 12:49 | 48.51163 | 6.52136 | 33073 ft | 459 kts | 96° |
| 2026-05-08 12:49 | 48.50609 | 6.61714 | 33078 ft | 458 kts | 97° |
| 2026-05-08 12:50 | 48.50045 | 6.71278 | 33079 ft | 457 kts | 97° |
| 2026-05-08 12:50 | 48.49466 | 6.80825 | 33075 ft | 457 kts | 97° |
| 2026-05-08 12:51 | 48.48593 | 6.95151 | 33075 ft | 457 kts | 97° |
| 2026-05-08 12:52 | 48.48012 | 7.04664 | 33076 ft | 455 kts | 97° |
| 2026-05-08 12:52 | 48.47110 | 7.18899 | 33076 ft | 455 kts | 97° |
| 2026-05-08 12:53 | 48.46507 | 7.28382 | 33080 ft | 454 kts | 97° |
| 2026-05-08 12:53 | 48.45891 | 7.37857 | 33071 ft | 454 kts | 97° |
| 2026-05-08 12:54 | 48.45261 | 7.47317 | 33075 ft | 454 kts | 97° |
| 2026-05-08 12:54 | 48.44634 | 7.56767 | 33075 ft | 453 kts | 97° |
| 2026-05-08 12:55 | 48.43997 | 7.66211 | 33072 ft | 453 kts | 97° |
| 2026-05-08 12:55 | 48.43562 | 7.75674 | 33068 ft | 454 kts | 89° |
| 2026-05-08 12:56 | 48.43821 | 7.85118 | 33058 ft | 454 kts | 89° |
| 2026-05-08 12:56 | 48.44061 | 7.94633 | 33055 ft | 454 kts | 89° |
| 2026-05-08 12:57 | 48.44298 | 8.04144 | 33058 ft | 455 kts | 89° |
| 2026-05-08 12:57 | 48.44521 | 8.13660 | 33055 ft | 455 kts | 89° |
| 2026-05-08 12:58 | 48.44741 | 8.23200 | 33056 ft | 455 kts | 89° |
| 2026-05-08 12:58 | 48.44948 | 8.32740 | 33058 ft | 455 kts | 90° |
| 2026-05-08 12:59 | 48.45148 | 8.42277 | 33060 ft | 455 kts | 90° |
| 2026-05-08 12:59 | 48.45343 | 8.51808 | 33061 ft | 455 kts | 90° |
| 2026-05-08 13:00 | 48.45526 | 8.61349 | 33061 ft | 455 kts | 90° |
| 2026-05-08 13:00 | 48.45708 | 8.70835 | 33057 ft | 456 kts | 90° |
| 2026-05-08 13:01 | 48.45884 | 8.80380 | 33057 ft | 456 kts | 90° |
| 2026-05-08 13:01 | 48.46045 | 8.89934 | 33059 ft | 456 kts | 90° |
| 2026-05-08 13:02 | 48.46188 | 8.99497 | 33061 ft | 456 kts | 90° |
| 2026-05-08 13:02 | 48.46271 | 9.09052 | 32886 ft | 456 kts | 91° |
| 2026-05-08 13:03 | 48.46277 | 9.13825 | 32482 ft | 455 kts | 91° |
| 2026-05-08 13:03 | 48.46273 | 9.18600 | 31790 ft | 455 kts | 91° |
| 2026-05-08 13:03 | 48.46265 | 9.23347 | 31277 ft | 451 kts | 91° |
| 2026-05-08 13:03 | 48.46255 | 9.28054 | 30769 ft | 448 kts | 91° |
| 2026-05-08 13:04 | 48.46244 | 9.32731 | 30268 ft | 443 kts | 91° |
| 2026-05-08 13:04 | 48.46241 | 9.37347 | 29702 ft | 440 kts | 91° |
| 2026-05-08 13:04 | 48.46244 | 9.41936 | 29115 ft | 435 kts | 91° |
| 2026-05-08 13:04 | 48.46246 | 9.46481 | 28517 ft | 432 kts | 91° |
| 2026-05-08 13:05 | 48.46243 | 9.50983 | 27941 ft | 428 kts | 91° |
| 2026-05-08 13:05 | 48.46232 | 9.55457 | 27360 ft | 425 kts | 92° |
| 2026-05-08 13:05 | 48.46218 | 9.59896 | 26780 ft | 422 kts | 92° |
| 2026-05-08 13:05 | 48.46205 | 9.64301 | 26224 ft | 419 kts | 92° |
| 2026-05-08 13:06 | 48.46194 | 9.68670 | 25688 ft | 416 kts | 91° |
| 2026-05-08 13:06 | 48.46194 | 9.73025 | 25158 ft | 413 kts | 91° |
| 2026-05-08 13:06 | 48.46212 | 9.77346 | 24643 ft | 411 kts | 91° |
| 2026-05-08 13:06 | 48.46239 | 9.81631 | 24151 ft | 408 kts | 91° |
| 2026-05-08 13:07 | 48.46262 | 9.85892 | 23662 ft | 405 kts | 91° |
| 2026-05-08 13:07 | 48.46279 | 9.90121 | 23093 ft | 402 kts | 91° |
| 2026-05-08 13:07 | 48.46292 | 9.94323 | 22547 ft | 399 kts | 91° |
| 2026-05-08 13:07 | 48.46302 | 9.98483 | 22011 ft | 395 kts | 91° |
| 2026-05-08 13:08 | 48.46309 | 10.02600 | 21476 ft | 392 kts | 91° |
| 2026-05-08 13:08 | 48.46314 | 10.06693 | 20964 ft | 388 kts | 91° |
| 2026-05-08 13:08 | 48.46317 | 10.10757 | 20448 ft | 385 kts | 91° |
| 2026-05-08 13:08 | 48.46318 | 10.14781 | 19931 ft | 382 kts | 91° |
| 2026-05-08 13:09 | 48.46317 | 10.18709 | 19461 ft | 378 kts | 91° |
| 2026-05-08 13:09 | 48.46315 | 10.22658 | 18971 ft | 375 kts | 91° |
| 2026-05-08 13:09 | 48.46315 | 10.26573 | 18498 ft | 372 kts | 90° |
| 2026-05-08 13:09 | 48.46313 | 10.30457 | 17970 ft | 369 kts | 91° |
| 2026-05-08 13:10 | 48.46309 | 10.34304 | 17424 ft | 366 kts | 91° |
| 2026-05-08 13:10 | 48.46304 | 10.38127 | 16901 ft | 363 kts | 91° |
| 2026-05-08 13:10 | 48.46299 | 10.41916 | 16370 ft | 360 kts | 90° |
| 2026-05-08 13:10 | 48.46294 | 10.45671 | 15856 ft | 357 kts | 90° |
| 2026-05-08 13:11 | 48.46285 | 10.49397 | 15339 ft | 354 kts | 91° |
| 2026-05-08 13:11 | 48.46274 | 10.53098 | 14829 ft | 352 kts | 91° |
| 2026-05-08 13:11 | 48.46263 | 10.56772 | 14339 ft | 350 kts | 91° |
| 2026-05-08 13:11 | 48.46297 | 10.60418 | 13862 ft | 347 kts | 85° |
| 2026-05-08 13:12 | 48.46595 | 10.64019 | 13316 ft | 345 kts | 83° |
| 2026-05-08 13:12 | 48.46910 | 10.67583 | 12793 ft | 342 kts | 83° |
| 2026-05-08 13:12 | 48.47219 | 10.71118 | 12286 ft | 340 kts | 83° |
| 2026-05-08 13:12 | 48.47519 | 10.74580 | 11952 ft | 332 kts | 83° |
| 2026-05-08 13:13 | 48.47812 | 10.77961 | 11811 ft | 319 kts | 83° |
| 2026-05-08 13:13 | 48.48094 | 10.81235 | 11543 ft | 311 kts | 83° |
| 2026-05-08 13:13 | 48.48370 | 10.84455 | 11169 ft | 309 kts | 83° |
| 2026-05-08 13:13 | 48.48645 | 10.87656 | 10773 ft | 307 kts | 83° |
| 2026-05-08 13:14 | 48.48915 | 10.90834 | 10383 ft | 306 kts | 83° |
| 2026-05-08 13:14 | 48.49187 | 10.94004 | 10002 ft | 305 kts | 83° |
| 2026-05-08 13:14 | 48.49461 | 10.97165 | 9604 ft | 303 kts | 83° |
| 2026-05-08 13:14 | 48.49702 | 11.00304 | 9214 ft | 299 kts | 89° |
| 2026-05-08 13:15 | 48.49331 | 11.03332 | 8845 ft | 292 kts | 116° |
| 2026-05-08 13:15 | 48.48151 | 11.05736 | 8482 ft | 284 kts | 144° |
| 2026-05-08 13:15 | 48.46496 | 11.07312 | 8306 ft | 282 kts | 153° |
| 2026-05-08 13:15 | 48.44767 | 11.08725 | 8139 ft | 283 kts | 152° |
| 2026-05-08 13:16 | 48.43234 | 11.10590 | 7976 ft | 285 kts | 136° |
| 2026-05-08 13:16 | 48.41866 | 11.12759 | 7753 ft | 285 kts | 133° |
| 2026-05-08 13:16 | 48.40790 | 11.15243 | 7493 ft | 284 kts | 116° |
| 2026-05-08 13:16 | 48.39975 | 11.17941 | 7334 ft | 284 kts | 115° |
| 2026-05-08 13:17 | 48.39181 | 11.20665 | 7159 ft | 283 kts | 114° |
| 2026-05-08 13:17 | 48.38392 | 11.23372 | 6992 ft | 282 kts | 114° |
| 2026-05-08 13:17 | 48.37602 | 11.26069 | 6776 ft | 281 kts | 115° |
| 2026-05-08 13:17 | 48.36814 | 11.28758 | 6599 ft | 281 kts | 114° |
| 2026-05-08 13:18 | 48.36022 | 11.31445 | 6404 ft | 280 kts | 114° |
| 2026-05-08 13:18 | 48.35242 | 11.34076 | 6200 ft | 278 kts | 114° |
| 2026-05-08 13:18 | 48.34452 | 11.36717 | 5991 ft | 275 kts | 114° |
| 2026-05-08 13:18 | 48.33724 | 11.39315 | 5788 ft | 266 kts | 105° |
| 2026-05-08 13:19 | 48.33528 | 11.41980 | 5587 ft | 251 kts | 84° |
| 2026-05-08 13:19 | 48.33720 | 11.44457 | 5417 ft | 230 kts | 82° |
| 2026-05-08 13:19 | 48.33910 | 11.46775 | 5277 ft | 214 kts | 82° |
| 2026-05-08 13:19 | 48.34082 | 11.48916 | 5107 ft | 200 kts | 82° |
| 2026-05-08 13:20 | 48.34245 | 11.50947 | 4888 ft | 191 kts | 82° |
| 2026-05-08 13:20 | 48.34400 | 11.52900 | 4631 ft | 186 kts | 81° |
| 2026-05-08 13:20 | 48.34552 | 11.54809 | 4381 ft | 182 kts | 81° |
| 2026-05-08 13:20 | 48.34701 | 11.56677 | 4138 ft | 178 kts | 82° |
| 2026-05-08 13:21 | 48.34845 | 11.58500 | 3900 ft | 173 kts | 82° |
| 2026-05-08 13:21 | 48.34984 | 11.60268 | 3667 ft | 167 kts | 81° |
| 2026-05-08 13:21 | 48.35117 | 11.61957 | 3473 ft | 158 kts | 81° |
| 2026-05-08 13:21 | 48.35243 | 11.63548 | 3259 ft | 151 kts | 81° |
| 2026-05-08 13:22 | 48.35365 | 11.65104 | 3054 ft | 149 kts | 82° |
| 2026-05-08 13:22 | 48.35486 | 11.66637 | 2863 ft | 147 kts | 81° |
| 2026-05-08 13:22 | 48.35606 | 11.68156 | 2661 ft | 144 kts | 80° |
| 2026-05-08 13:22 | 48.35718 | 11.69621 | 2485 ft | 143 kts | 81° |
| 2026-05-08 13:23 | 48.35838 | 11.71126 | 2260 ft | 146 kts | 81° |
| 2026-05-08 13:23 | 48.35964 | 11.72638 | 2051 ft | 146 kts | 81° |
| 2026-05-08 13:23 | 48.36079 | 11.74170 | 1852 ft | 146 kts | 81° |
| 2026-05-08 13:23 | 48.36186 | 11.75687 | 1631 ft | 146 kts | 82° |
| 2026-05-08 13:24 | 48.36308 | 11.77179 | 1481 ft | 138 kts | 81° |
| 2026-05-08 13:24 | 48.36411 | 11.78450 | 1473 ft | 102 kts | 84° |
| 2026-05-08 13:24 | 48.36461 | 11.79131 | 1485 ft | 29 kts | 87° |
| 2026-05-08 13:24 | 48.36412 | 11.79396 | 1479 ft | 25 kts | 114° |
| 2026-05-08 13:25 | 48.36345 | 11.79625 | 1477 ft | 20 kts | 113° |
| 2026-05-08 13:25 | 48.36285 | 11.79771 | 1474 ft | 13 kts | 159° |
| 2026-05-08 13:25 | 48.36231 | 11.79677 | 1482 ft | 14 kts | 259° |
| 2026-05-08 13:25 | 48.36215 | 11.79521 | 1484 ft | 16 kts | 259° |
| 2026-05-08 13:26 | 48.36142 | 11.79471 | 1476 ft | 13 kts | 174° |
| 2026-05-08 13:26 | 48.36044 | 11.79488 | 1477 ft | 15 kts | 173° |
| 2026-05-08 13:26 | 48.35934 | 11.79507 | 1482 ft | 17 kts | 173° |
| 2026-05-08 13:26 | 48.35822 | 11.79533 | 1483 ft | 14 kts | 156° |
| 2026-05-08 13:27 | 48.35804 | 11.79672 | 1481 ft | 15 kts | 83° |
| 2026-05-08 13:27 | 48.35816 | 11.79833 | 1480 ft | 14 kts | 83° |
| 2026-05-08 13:27 | 48.35826 | 11.79969 | 1481 ft | 12 kts | 88° |
| 2026-05-08 13:27 | 48.35787 | 11.80060 | 1481 ft | 10 kts | 157° |
| 2026-05-08 13:28 | 48.35717 | 11.80078 | 1472 ft | 10 kts | 172° |
| 2026-05-08 13:28 | 48.35651 | 11.80099 | 1485 ft | 10 kts | 174° |
| 2026-05-08 13:28 | 48.35589 | 11.80108 | 1480 ft | 8 kts | 175° |
| 2026-05-08 13:28 | 48.35542 | 11.80116 | 1485 ft | 6 kts | 174° |
| 2026-05-08 13:29 | 48.35515 | 11.80082 | 1475 ft | 6 kts | 250° |
| 2026-05-08 13:29 | 48.35509 | 11.80030 | 1485 ft | 4 kts | 262° |
| 2026-05-08 13:29 | 48.35508 | 11.80018 | 1485 ft | 0 kts | 263° |